sensor_id;sensor_type;location;lat;lon;timestamp;P1;durP1;ratioP1;P2;durP2;ratioP2
43809;SDS011;29440;48.208;11.162;2023-12-20T00:02:13;3.35;;;1.52;;
43809;SDS011;29440;48.208;11.162;2023-12-20T00:04:39;3.13;;;1.75;;
43809;SDS011;29440;48.208;11.162;2023-12-20T00:07:04;2.65;;;1.50;;
43809;SDS011;29440;48.208;11.162;2023-12-20T00:09:30;3.40;;;1.73;;
43809;SDS011;29440;48.208;11.162;2023-12-20T00:11:55;2.88;;;1.60;;
43809;SDS011;29440;48.208;11.162;2023-12-20T00:14:21;3.97;;;1.58;;
43809;SDS011;29440;48.208;11.162;2023-12-20T00:16:47;2.63;;;1.50;;
43809;SDS011;29440;48.208;11.162;2023-12-20T00:19:12;3.40;;;1.60;;
43809;SDS011;29440;48.208;11.162;2023-12-20T00:21:38;2.15;;;1.30;;
43809;SDS011;29440;48.208;11.162;2023-12-20T00:24:04;2.10;;;1.30;;
43809;SDS011;29440;48.208;11.162;2023-12-20T00:26:30;3.15;;;1.40;;
43809;SDS011;29440;48.208;11.162;2023-12-20T00:28:55;3.53;;;1.30;;
43809;SDS011;29440;48.208;11.162;2023-12-20T00:31:21;3.00;;;1.33;;
43809;SDS011;29440;48.208;11.162;2023-12-20T00:33:46;2.42;;;1.30;;
43809;SDS011;29440;48.208;11.162;2023-12-20T00:36:12;2.70;;;1.40;;
43809;SDS011;29440;48.208;11.162;2023-12-20T00:38:37;2.30;;;1.20;;
43809;SDS011;29440;48.208;11.162;2023-12-20T00:41:03;2.95;;;1.40;;
43809;SDS011;29440;48.208;11.162;2023-12-20T00:43:29;3.53;;;1.60;;
43809;SDS011;29440;48.208;11.162;2023-12-20T00:45:54;2.85;;;1.30;;
43809;SDS011;29440;48.208;11.162;2023-12-20T00:48:20;3.67;;;1.20;;
43809;SDS011;29440;48.208;11.162;2023-12-20T00:50:46;2.15;;;1.20;;
43809;SDS011;29440;48.208;11.162;2023-12-20T00:53:11;4.57;;;1.08;;
43809;SDS011;29440;48.208;11.162;2023-12-20T00:55:37;3.17;;;1.10;;
43809;SDS011;29440;48.208;11.162;2023-12-20T00:58:03;2.70;;;1.17;;
43809;SDS011;29440;48.208;11.162;2023-12-20T01:00:28;2.38;;;0.95;;
43809;SDS011;29440;48.208;11.162;2023-12-20T01:02:54;2.40;;;1.05;;
43809;SDS011;29440;48.208;11.162;2023-12-20T01:05:20;3.20;;;1.10;;
43809;SDS011;29440;48.208;11.162;2023-12-20T01:07:48;2.58;;;1.00;;
43809;SDS011;29440;48.208;11.162;2023-12-20T01:10:14;2.38;;;1.00;;
43809;SDS011;29440;48.208;11.162;2023-12-20T01:12:39;2.70;;;1.33;;
43809;SDS011;29440;48.208;11.162;2023-12-20T01:15:05;1.77;;;0.98;;
43809;SDS011;29440;48.208;11.162;2023-12-20T01:17:31;1.52;;;0.70;;
43809;SDS011;29440;48.208;11.162;2023-12-20T01:19:56;1.63;;;0.70;;
43809;SDS011;29440;48.208;11.162;2023-12-20T01:22:23;1.65;;;0.80;;
43809;SDS011;29440;48.208;11.162;2023-12-20T01:24:48;1.85;;;0.82;;
43809;SDS011;29440;48.208;11.162;2023-12-20T01:27:14;1.88;;;1.02;;
43809;SDS011;29440;48.208;11.162;2023-12-20T01:29:39;1.85;;;0.90;;
43809;SDS011;29440;48.208;11.162;2023-12-20T01:32:05;1.80;;;0.90;;
43809;SDS011;29440;48.208;11.162;2023-12-20T01:34:31;2.80;;;0.98;;
43809;SDS011;29440;48.208;11.162;2023-12-20T01:36:57;2.60;;;0.90;;
43809;SDS011;29440;48.208;11.162;2023-12-20T01:39:22;2.40;;;0.95;;
43809;SDS011;29440;48.208;11.162;2023-12-20T01:41:48;1.20;;;0.70;;
43809;SDS011;29440;48.208;11.162;2023-12-20T01:44:14;2.05;;;0.80;;
43809;SDS011;29440;48.208;11.162;2023-12-20T01:46:39;0.90;;;0.55;;
43809;SDS011;29440;48.208;11.162;2023-12-20T01:49:06;1.58;;;0.80;;
43809;SDS011;29440;48.208;11.162;2023-12-20T01:51:31;1.17;;;0.60;;
43809;SDS011;29440;48.208;11.162;2023-12-20T01:53:58;1.20;;;0.68;;
43809;SDS011;29440;48.208;11.162;2023-12-20T01:56:25;1.55;;;0.77;;
43809;SDS011;29440;48.208;11.162;2023-12-20T01:58:54;1.30;;;0.60;;
43809;SDS011;29440;48.208;11.162;2023-12-20T02:01:21;1.30;;;0.60;;
43809;SDS011;29440;48.208;11.162;2023-12-20T02:03:47;1.20;;;0.70;;
43809;SDS011;29440;48.208;11.162;2023-12-20T02:06:12;1.38;;;0.55;;
43809;SDS011;29440;48.208;11.162;2023-12-20T02:08:38;1.08;;;0.60;;
43809;SDS011;29440;48.208;11.162;2023-12-20T02:11:04;1.08;;;0.60;;
43809;SDS011;29440;48.208;11.162;2023-12-20T02:13:30;1.23;;;0.50;;
43809;SDS011;29440;48.208;11.162;2023-12-20T02:15:56;0.70;;;0.50;;
43809;SDS011;29440;48.208;11.162;2023-12-20T02:18:22;1.67;;;0.50;;
43809;SDS011;29440;48.208;11.162;2023-12-20T02:20:47;1.25;;;0.60;;
43809;SDS011;29440;48.208;11.162;2023-12-20T02:23:13;0.82;;;0.50;;
43809;SDS011;29440;48.208;11.162;2023-12-20T02:25:39;1.33;;;0.60;;
43809;SDS011;29440;48.208;11.162;2023-12-20T02:28:04;1.27;;;0.60;;
43809;SDS011;29440;48.208;11.162;2023-12-20T02:30:30;0.65;;;0.40;;
43809;SDS011;29440;48.208;11.162;2023-12-20T02:32:56;0.73;;;0.50;;
43809;SDS011;29440;48.208;11.162;2023-12-20T02:35:24;0.85;;;0.43;;
43809;SDS011;29440;48.208;11.162;2023-12-20T02:37:50;1.27;;;0.57;;
43809;SDS011;29440;48.208;11.162;2023-12-20T02:40:15;1.88;;;0.80;;
43809;SDS011;29440;48.208;11.162;2023-12-20T02:42:41;2.35;;;1.10;;
43809;SDS011;29440;48.208;11.162;2023-12-20T02:45:06;1.17;;;0.70;;
43809;SDS011;29440;48.208;11.162;2023-12-20T02:47:32;1.17;;;0.60;;
43809;SDS011;29440;48.208;11.162;2023-12-20T02:49:58;1.63;;;0.60;;
43809;SDS011;29440;48.208;11.162;2023-12-20T02:52:23;1.50;;;0.50;;
43809;SDS011;29440;48.208;11.162;2023-12-20T02:54:49;1.10;;;0.43;;
43809;SDS011;29440;48.208;11.162;2023-12-20T02:57:15;1.15;;;0.60;;
43809;SDS011;29440;48.208;11.162;2023-12-20T02:59:41;0.80;;;0.47;;
43809;SDS011;29440;48.208;11.162;2023-12-20T03:02:06;0.60;;;0.45;;
43809;SDS011;29440;48.208;11.162;2023-12-20T03:04:32;0.70;;;0.50;;
43809;SDS011;29440;48.208;11.162;2023-12-20T03:06:57;1.10;;;0.55;;
43809;SDS011;29440;48.208;11.162;2023-12-20T03:09:23;1.52;;;0.60;;
43809;SDS011;29440;48.208;11.162;2023-12-20T03:11:48;2.17;;;0.80;;
43809;SDS011;29440;48.208;11.162;2023-12-20T03:14:14;2.70;;;1.00;;
43809;SDS011;29440;48.208;11.162;2023-12-20T03:16:39;1.13;;;0.65;;
43809;SDS011;29440;48.208;11.162;2023-12-20T03:19:05;1.40;;;0.60;;
43809;SDS011;29440;48.208;11.162;2023-12-20T03:21:31;1.40;;;0.80;;
43809;SDS011;29440;48.208;11.162;2023-12-20T03:23:56;0.90;;;0.50;;
43809;SDS011;29440;48.208;11.162;2023-12-20T03:26:22;1.08;;;0.60;;
43809;SDS011;29440;48.208;11.162;2023-12-20T03:28:48;1.35;;;0.80;;
43809;SDS011;29440;48.208;11.162;2023-12-20T03:31:14;1.42;;;0.57;;
43809;SDS011;29440;48.208;11.162;2023-12-20T03:33:39;1.67;;;0.70;;
43809;SDS011;29440;48.208;11.162;2023-12-20T03:36:05;1.40;;;0.63;;
43809;SDS011;29440;48.208;11.162;2023-12-20T03:38:31;1.60;;;0.85;;
43809;SDS011;29440;48.208;11.162;2023-12-20T03:40:56;1.17;;;0.68;;
43809;SDS011;29440;48.208;11.162;2023-12-20T03:43:22;0.95;;;0.70;;
43809;SDS011;29440;48.208;11.162;2023-12-20T03:45:47;1.88;;;0.63;;
43809;SDS011;29440;48.208;11.162;2023-12-20T03:48:13;2.20;;;0.80;;
43809;SDS011;29440;48.208;11.162;2023-12-20T03:50:38;1.50;;;0.80;;
43809;SDS011;29440;48.208;11.162;2023-12-20T03:53:04;0.90;;;0.40;;
43809;SDS011;29440;48.208;11.162;2023-12-20T03:55:29;1.25;;;0.73;;
43809;SDS011;29440;48.208;11.162;2023-12-20T03:57:55;1.55;;;0.65;;
43809;SDS011;29440;48.208;11.162;2023-12-20T04:00:21;1.88;;;0.90;;
43809;SDS011;29440;48.208;11.162;2023-12-20T04:02:46;2.17;;;0.85;;
43809;SDS011;29440;48.208;11.162;2023-12-20T04:05:12;1.73;;;0.68;;
43809;SDS011;29440;48.208;11.162;2023-12-20T04:07:37;1.55;;;0.80;;
43809;SDS011;29440;48.208;11.162;2023-12-20T04:10:04;3.10;;;1.00;;
43809;SDS011;29440;48.208;11.162;2023-12-20T04:12:30;2.15;;;0.90;;
43809;SDS011;29440;48.208;11.162;2023-12-20T04:14:56;1.77;;;1.10;;
43809;SDS011;29440;48.208;11.162;2023-12-20T04:17:22;2.47;;;1.13;;
43809;SDS011;29440;48.208;11.162;2023-12-20T04:19:48;1.50;;;0.88;;
43809;SDS011;29440;48.208;11.162;2023-12-20T04:22:14;2.70;;;1.20;;
43809;SDS011;29440;48.208;11.162;2023-12-20T04:24:39;2.17;;;1.10;;
43809;SDS011;29440;48.208;11.162;2023-12-20T04:27:07;2.00;;;1.20;;
43809;SDS011;29440;48.208;11.162;2023-12-20T04:29:33;2.22;;;1.40;;
43809;SDS011;29440;48.208;11.162;2023-12-20T04:31:58;2.45;;;1.20;;
43809;SDS011;29440;48.208;11.162;2023-12-20T04:34:24;2.05;;;1.25;;
43809;SDS011;29440;48.208;11.162;2023-12-20T04:36:49;2.55;;;1.42;;
43809;SDS011;29440;48.208;11.162;2023-12-20T04:39:15;3.90;;;1.40;;
43809;SDS011;29440;48.208;11.162;2023-12-20T04:41:41;12.57;;;1.42;;
43809;SDS011;29440;48.208;11.162;2023-12-20T04:44:06;2.67;;;1.33;;
43809;SDS011;29440;48.208;11.162;2023-12-20T04:46:32;2.67;;;1.38;;
43809;SDS011;29440;48.208;11.162;2023-12-20T04:48:57;3.08;;;1.50;;
43809;SDS011;29440;48.208;11.162;2023-12-20T04:51:23;4.47;;;1.60;;
43809;SDS011;29440;48.208;11.162;2023-12-20T04:53:49;3.70;;;1.88;;
43809;SDS011;29440;48.208;11.162;2023-12-20T04:56:14;3.40;;;1.85;;
43809;SDS011;29440;48.208;11.162;2023-12-20T04:58:40;2.70;;;1.60;;
43809;SDS011;29440;48.208;11.162;2023-12-20T05:01:08;3.00;;;1.83;;
43809;SDS011;29440;48.208;11.162;2023-12-20T05:03:34;3.92;;;2.65;;
43809;SDS011;29440;48.208;11.162;2023-12-20T05:05:59;3.30;;;2.10;;
43809;SDS011;29440;48.208;11.162;2023-12-20T05:08:25;3.10;;;1.98;;
43809;SDS011;29440;48.208;11.162;2023-12-20T05:10:54;5.03;;;2.63;;
43809;SDS011;29440;48.208;11.162;2023-12-20T05:13:20;4.25;;;2.22;;
43809;SDS011;29440;48.208;11.162;2023-12-20T05:15:46;4.60;;;2.42;;
43809;SDS011;29440;48.208;11.162;2023-12-20T05:18:12;4.47;;;2.42;;
43809;SDS011;29440;48.208;11.162;2023-12-20T05:20:39;3.25;;;2.28;;
43809;SDS011;29440;48.208;11.162;2023-12-20T05:23:05;5.80;;;2.47;;
43809;SDS011;29440;48.208;11.162;2023-12-20T05:25:30;4.45;;;2.63;;
43809;SDS011;29440;48.208;11.162;2023-12-20T05:27:56;4.55;;;2.38;;
43809;SDS011;29440;48.208;11.162;2023-12-20T05:30:22;5.85;;;2.40;;
43809;SDS011;29440;48.208;11.162;2023-12-20T05:32:47;4.30;;;2.40;;
43809;SDS011;29440;48.208;11.162;2023-12-20T05:35:13;4.07;;;2.30;;
43809;SDS011;29440;48.208;11.162;2023-12-20T05:37:38;5.22;;;1.92;;
43809;SDS011;29440;48.208;11.162;2023-12-20T05:40:04;5.82;;;2.63;;
43809;SDS011;29440;48.208;11.162;2023-12-20T05:42:30;3.65;;;2.05;;
43809;SDS011;29440;48.208;11.162;2023-12-20T05:44:56;4.82;;;2.33;;
43809;SDS011;29440;48.208;11.162;2023-12-20T05:47:21;2.83;;;1.83;;
43809;SDS011;29440;48.208;11.162;2023-12-20T05:49:47;3.00;;;1.98;;
43809;SDS011;29440;48.208;11.162;2023-12-20T05:52:13;3.58;;;2.17;;
43809;SDS011;29440;48.208;11.162;2023-12-20T05:54:38;3.72;;;2.22;;
43809;SDS011;29440;48.208;11.162;2023-12-20T05:57:04;3.65;;;2.08;;
43809;SDS011;29440;48.208;11.162;2023-12-20T05:59:29;4.22;;;2.00;;
43809;SDS011;29440;48.208;11.162;2023-12-20T06:01:55;2.78;;;1.85;;
43809;SDS011;29440;48.208;11.162;2023-12-20T06:04:20;3.35;;;2.08;;
43809;SDS011;29440;48.208;11.162;2023-12-20T06:06:46;4.20;;;2.30;;
43809;SDS011;29440;48.208;11.162;2023-12-20T06:09:12;4.88;;;2.50;;
43809;SDS011;29440;48.208;11.162;2023-12-20T06:11:37;4.18;;;2.08;;
43809;SDS011;29440;48.208;11.162;2023-12-20T06:14:03;2.67;;;1.55;;
43809;SDS011;29440;48.208;11.162;2023-12-20T06:16:36;4.00;;;2.20;;
43809;SDS011;29440;48.208;11.162;2023-12-20T06:19:02;2.55;;;1.80;;
43809;SDS011;29440;48.208;11.162;2023-12-20T06:21:27;4.90;;;2.60;;
43809;SDS011;29440;48.208;11.162;2023-12-20T06:23:53;4.25;;;2.08;;
43809;SDS011;29440;48.208;11.162;2023-12-20T06:26:19;5.53;;;2.70;;
43809;SDS011;29440;48.208;11.162;2023-12-20T06:28:45;4.85;;;2.28;;
43809;SDS011;29440;48.208;11.162;2023-12-20T06:31:11;4.60;;;2.28;;
43809;SDS011;29440;48.208;11.162;2023-12-20T06:33:36;3.30;;;2.20;;
43809;SDS011;29440;48.208;11.162;2023-12-20T06:36:05;3.55;;;2.10;;
43809;SDS011;29440;48.208;11.162;2023-12-20T06:38:31;3.80;;;1.60;;
43809;SDS011;29440;48.208;11.162;2023-12-20T06:40:56;4.05;;;2.30;;
43809;SDS011;29440;48.208;11.162;2023-12-20T06:43:23;4.00;;;2.22;;
43809;SDS011;29440;48.208;11.162;2023-12-20T06:45:49;2.35;;;1.50;;
43809;SDS011;29440;48.208;11.162;2023-12-20T06:48:14;3.15;;;1.80;;
43809;SDS011;29440;48.208;11.162;2023-12-20T06:50:40;3.53;;;2.00;;
43809;SDS011;29440;48.208;11.162;2023-12-20T06:53:06;4.15;;;2.10;;
43809;SDS011;29440;48.208;11.162;2023-12-20T06:55:35;2.90;;;1.65;;
43809;SDS011;29440;48.208;11.162;2023-12-20T06:58:02;3.22;;;1.65;;
43809;SDS011;29440;48.208;11.162;2023-12-20T07:00:28;4.68;;;2.10;;
43809;SDS011;29440;48.208;11.162;2023-12-20T07:02:54;3.88;;;1.63;;
43809;SDS011;29440;48.208;11.162;2023-12-20T07:05:20;2.88;;;1.55;;
43809;SDS011;29440;48.208;11.162;2023-12-20T07:07:45;2.38;;;1.30;;
43809;SDS011;29440;48.208;11.162;2023-12-20T07:10:12;1.98;;;1.40;;
43809;SDS011;29440;48.208;11.162;2023-12-20T07:12:38;3.10;;;1.30;;
43809;SDS011;29440;48.208;11.162;2023-12-20T07:15:04;2.88;;;1.63;;
43809;SDS011;29440;48.208;11.162;2023-12-20T07:17:31;2.85;;;1.33;;
43809;SDS011;29440;48.208;11.162;2023-12-20T07:19:58;3.28;;;1.55;;
43809;SDS011;29440;48.208;11.162;2023-12-20T07:22:23;1.80;;;1.08;;
43809;SDS011;29440;48.208;11.162;2023-12-20T07:24:49;2.42;;;0.93;;
43809;SDS011;29440;48.208;11.162;2023-12-20T07:27:17;1.52;;;0.88;;
43809;SDS011;29440;48.208;11.162;2023-12-20T07:29:42;1.25;;;0.63;;
43809;SDS011;29440;48.208;11.162;2023-12-20T07:32:08;2.05;;;1.00;;
43809;SDS011;29440;48.208;11.162;2023-12-20T07:34:34;1.83;;;0.90;;
43809;SDS011;29440;48.208;11.162;2023-12-20T07:39:37;1.40;;;0.73;;
43809;SDS011;29440;48.208;11.162;2023-12-20T07:42:05;1.58;;;0.90;;
43809;SDS011;29440;48.208;11.162;2023-12-20T07:44:30;2.08;;;0.98;;
43809;SDS011;29440;48.208;11.162;2023-12-20T07:46:56;1.75;;;1.10;;
43809;SDS011;29440;48.208;11.162;2023-12-20T07:49:22;1.98;;;0.85;;
43809;SDS011;29440;48.208;11.162;2023-12-20T07:51:48;1.55;;;0.88;;
43809;SDS011;29440;48.208;11.162;2023-12-20T07:54:14;1.67;;;0.95;;
43809;SDS011;29440;48.208;11.162;2023-12-20T07:56:40;2.15;;;0.60;;
43809;SDS011;29440;48.208;11.162;2023-12-20T07:59:05;2.45;;;0.80;;
43809;SDS011;29440;48.208;11.162;2023-12-20T08:01:31;1.27;;;0.60;;
43809;SDS011;29440;48.208;11.162;2023-12-20T08:03:56;1.65;;;0.80;;
43809;SDS011;29440;48.208;11.162;2023-12-20T08:06:22;1.08;;;0.70;;
43809;SDS011;29440;48.208;11.162;2023-12-20T08:08:48;1.55;;;1.00;;
43809;SDS011;29440;48.208;11.162;2023-12-20T08:11:14;2.20;;;1.13;;
43809;SDS011;29440;48.208;11.162;2023-12-20T08:13:40;1.55;;;0.80;;
43809;SDS011;29440;48.208;11.162;2023-12-20T08:16:05;2.65;;;1.33;;
43809;SDS011;29440;48.208;11.162;2023-12-20T08:18:31;1.98;;;1.00;;
43809;SDS011;29440;48.208;11.162;2023-12-20T08:20:56;1.80;;;0.93;;
43809;SDS011;29440;48.208;11.162;2023-12-20T08:23:22;2.00;;;0.98;;
43809;SDS011;29440;48.208;11.162;2023-12-20T08:25:48;3.13;;;1.58;;
43809;SDS011;29440;48.208;11.162;2023-12-20T08:28:14;1.23;;;0.80;;
43809;SDS011;29440;48.208;11.162;2023-12-20T08:30:40;2.97;;;1.35;;
43809;SDS011;29440;48.208;11.162;2023-12-20T08:33:06;2.00;;;1.25;;
43809;SDS011;29440;48.208;11.162;2023-12-20T08:35:36;3.13;;;1.23;;
43809;SDS011;29440;48.208;11.162;2023-12-20T08:38:01;2.10;;;1.05;;
43809;SDS011;29440;48.208;11.162;2023-12-20T08:40:29;2.53;;;1.23;;
43809;SDS011;29440;48.208;11.162;2023-12-20T08:42:54;2.72;;;1.17;;
43809;SDS011;29440;48.208;11.162;2023-12-20T08:45:20;1.80;;;1.25;;
43809;SDS011;29440;48.208;11.162;2023-12-20T08:47:45;2.58;;;1.55;;
43809;SDS011;29440;48.208;11.162;2023-12-20T08:50:11;2.75;;;1.30;;
43809;SDS011;29440;48.208;11.162;2023-12-20T08:52:37;2.03;;;0.98;;
43809;SDS011;29440;48.208;11.162;2023-12-20T08:55:02;2.40;;;1.45;;
43809;SDS011;29440;48.208;11.162;2023-12-20T08:57:28;3.70;;;1.70;;
43809;SDS011;29440;48.208;11.162;2023-12-20T08:59:54;5.15;;;1.58;;
43809;SDS011;29440;48.208;11.162;2023-12-20T09:02:19;2.20;;;1.40;;
43809;SDS011;29440;48.208;11.162;2023-12-20T09:04:45;1.83;;;1.20;;
43809;SDS011;29440;48.208;11.162;2023-12-20T09:07:44;2.90;;;1.60;;
43809;SDS011;29440;48.208;11.162;2023-12-20T09:10:02;2.42;;;1.42;;
43809;SDS011;29440;48.208;11.162;2023-12-20T09:12:28;3.85;;;1.40;;
43809;SDS011;29440;48.208;11.162;2023-12-20T09:14:54;2.90;;;1.63;;
43809;SDS011;29440;48.208;11.162;2023-12-20T09:17:20;3.10;;;1.60;;
43809;SDS011;29440;48.208;11.162;2023-12-20T09:19:47;3.50;;;1.60;;
43809;SDS011;29440;48.208;11.162;2023-12-20T09:22:13;3.30;;;1.63;;
43809;SDS011;29440;48.208;11.162;2023-12-20T09:24:39;3.55;;;1.73;;
43809;SDS011;29440;48.208;11.162;2023-12-20T09:27:05;2.80;;;1.75;;
43809;SDS011;29440;48.208;11.162;2023-12-20T09:29:31;2.83;;;1.42;;
43809;SDS011;29440;48.208;11.162;2023-12-20T09:31:56;4.53;;;1.67;;
43809;SDS011;29440;48.208;11.162;2023-12-20T09:34:22;3.08;;;1.58;;
43809;SDS011;29440;48.208;11.162;2023-12-20T09:36:48;3.97;;;2.00;;
43809;SDS011;29440;48.208;11.162;2023-12-20T09:39:14;2.63;;;1.63;;
43809;SDS011;29440;48.208;11.162;2023-12-20T09:41:43;3.60;;;1.50;;
43809;SDS011;29440;48.208;11.162;2023-12-20T09:44:16;3.90;;;1.55;;
43809;SDS011;29440;48.208;11.162;2023-12-20T09:46:45;3.93;;;1.80;;
43809;SDS011;29440;48.208;11.162;2023-12-20T09:49:15;4.20;;;2.00;;
43809;SDS011;29440;48.208;11.162;2023-12-20T09:51:43;4.60;;;2.00;;
43809;SDS011;29440;48.208;11.162;2023-12-20T09:54:11;3.90;;;2.25;;
43809;SDS011;29440;48.208;11.162;2023-12-20T09:56:41;3.17;;;2.05;;
43809;SDS011;29440;48.208;11.162;2023-12-20T09:59:07;3.83;;;1.95;;
43809;SDS011;29440;48.208;11.162;2023-12-20T10:01:33;5.05;;;2.45;;
43809;SDS011;29440;48.208;11.162;2023-12-20T10:04:00;3.67;;;2.00;;
43809;SDS011;29440;48.208;11.162;2023-12-20T10:06:31;6.05;;;2.42;;
43809;SDS011;29440;48.208;11.162;2023-12-20T10:08:57;3.92;;;1.67;;
43809;SDS011;29440;48.208;11.162;2023-12-20T10:11:23;4.65;;;2.30;;
43809;SDS011;29440;48.208;11.162;2023-12-20T10:13:49;2.97;;;1.65;;
43809;SDS011;29440;48.208;11.162;2023-12-20T10:16:15;3.47;;;1.80;;
43809;SDS011;29440;48.208;11.162;2023-12-20T10:18:40;4.07;;;1.35;;
43809;SDS011;29440;48.208;11.162;2023-12-20T10:21:06;2.95;;;1.75;;
43809;SDS011;29440;48.208;11.162;2023-12-20T10:23:35;2.10;;;1.25;;
43809;SDS011;29440;48.208;11.162;2023-12-20T10:26:01;2.30;;;1.30;;
43809;SDS011;29440;48.208;11.162;2023-12-20T10:28:27;3.67;;;2.03;;
43809;SDS011;29440;48.208;11.162;2023-12-20T10:30:59;3.35;;;1.63;;
43809;SDS011;29440;48.208;11.162;2023-12-20T10:33:25;2.13;;;1.50;;
43809;SDS011;29440;48.208;11.162;2023-12-20T10:35:52;2.95;;;1.70;;
43809;SDS011;29440;48.208;11.162;2023-12-20T10:38:18;5.32;;;1.80;;
43809;SDS011;29440;48.208;11.162;2023-12-20T10:40:45;5.30;;;1.73;;
43809;SDS011;29440;48.208;11.162;2023-12-20T10:43:11;2.80;;;1.33;;
43809;SDS011;29440;48.208;11.162;2023-12-20T10:45:37;3.88;;;1.88;;
43809;SDS011;29440;48.208;11.162;2023-12-20T10:48:03;3.38;;;1.40;;
43809;SDS011;29440;48.208;11.162;2023-12-20T10:50:29;2.88;;;1.65;;
43809;SDS011;29440;48.208;11.162;2023-12-20T10:52:56;2.67;;;1.42;;
43809;SDS011;29440;48.208;11.162;2023-12-20T10:55:23;2.92;;;1.55;;
43809;SDS011;29440;48.208;11.162;2023-12-20T10:57:49;2.75;;;1.40;;
43809;SDS011;29440;48.208;11.162;2023-12-20T11:00:17;1.98;;;1.25;;
43809;SDS011;29440;48.208;11.162;2023-12-20T11:02:44;2.95;;;1.15;;
43809;SDS011;29440;48.208;11.162;2023-12-20T11:07:51;2.05;;;1.27;;
43809;SDS011;29440;48.208;11.162;2023-12-20T11:10:35;2.10;;;1.20;;
43809;SDS011;29440;48.208;11.162;2023-12-20T11:13:37;2.08;;;1.10;;
43809;SDS011;29440;48.208;11.162;2023-12-20T11:16:09;2.88;;;1.70;;
43809;SDS011;29440;48.208;11.162;2023-12-20T11:18:35;2.45;;;1.08;;
43809;SDS011;29440;48.208;11.162;2023-12-20T11:21:02;2.15;;;1.00;;
43809;SDS011;29440;48.208;11.162;2023-12-20T11:23:29;2.45;;;1.10;;
43809;SDS011;29440;48.208;11.162;2023-12-20T11:25:56;2.33;;;1.38;;
43809;SDS011;29440;48.208;11.162;2023-12-20T11:28:25;2.08;;;1.08;;
43809;SDS011;29440;48.208;11.162;2023-12-20T11:30:55;2.47;;;1.20;;
43809;SDS011;29440;48.208;11.162;2023-12-20T11:33:36;1.77;;;1.08;;
43809;SDS011;29440;48.208;11.162;2023-12-20T11:36:06;1.90;;;1.15;;
43809;SDS011;29440;48.208;11.162;2023-12-20T11:38:38;1.58;;;0.82;;
43809;SDS011;29440;48.208;11.162;2023-12-20T11:41:14;1.67;;;0.90;;
43809;SDS011;29440;48.208;11.162;2023-12-20T11:43:40;2.20;;;1.02;;
43809;SDS011;29440;48.208;11.162;2023-12-20T11:46:07;2.00;;;1.17;;
43809;SDS011;29440;48.208;11.162;2023-12-20T11:48:34;1.70;;;0.80;;
43809;SDS011;29440;48.208;11.162;2023-12-20T11:51:02;1.50;;;0.77;;
43809;SDS011;29440;48.208;11.162;2023-12-20T11:53:34;1.15;;;0.77;;
43809;SDS011;29440;48.208;11.162;2023-12-20T11:56:00;2.28;;;0.75;;
43809;SDS011;29440;48.208;11.162;2023-12-20T11:58:27;1.48;;;0.70;;
43809;SDS011;29440;48.208;11.162;2023-12-20T12:00:53;0.77;;;0.45;;
43809;SDS011;29440;48.208;11.162;2023-12-20T12:03:20;1.35;;;0.75;;
43809;SDS011;29440;48.208;11.162;2023-12-20T12:05:47;1.30;;;0.70;;
43809;SDS011;29440;48.208;11.162;2023-12-20T12:08:13;2.10;;;1.40;;
43809;SDS011;29440;48.208;11.162;2023-12-20T12:10:51;1.63;;;1.00;;
43809;SDS011;29440;48.208;11.162;2023-12-20T12:13:16;1.23;;;0.60;;
43809;SDS011;29440;48.208;11.162;2023-12-20T12:15:42;1.20;;;0.70;;
43809;SDS011;29440;48.208;11.162;2023-12-20T12:18:09;1.50;;;0.50;;
43809;SDS011;29440;48.208;11.162;2023-12-20T12:20:35;26.80;;;9.57;;
43809;SDS011;29440;48.208;11.162;2023-12-20T12:23:02;76.68;;;23.35;;
43809;SDS011;29440;48.208;11.162;2023-12-20T12:25:32;33.65;;;10.10;;
43809;SDS011;29440;48.208;11.162;2023-12-20T12:28:00;50.55;;;13.65;;
43809;SDS011;29440;48.208;11.162;2023-12-20T12:30:26;116.95;;;32.95;;
43809;SDS011;29440;48.208;11.162;2023-12-20T12:32:52;20.80;;;9.93;;
43809;SDS011;29440;48.208;11.162;2023-12-20T12:35:18;59.00;;;20.92;;
43809;SDS011;29440;48.208;11.162;2023-12-20T12:37:45;41.05;;;15.23;;
43809;SDS011;29440;48.208;11.162;2023-12-20T12:40:11;18.00;;;7.10;;
43809;SDS011;29440;48.208;11.162;2023-12-20T12:42:42;5.53;;;2.85;;
43809;SDS011;29440;48.208;11.162;2023-12-20T12:45:09;1.83;;;1.30;;
43809;SDS011;29440;48.208;11.162;2023-12-20T12:47:36;6.90;;;3.35;;
43809;SDS011;29440;48.208;11.162;2023-12-20T12:50:03;1.85;;;1.02;;
43809;SDS011;29440;48.208;11.162;2023-12-20T12:52:30;3.67;;;1.05;;
43809;SDS011;29440;48.208;11.162;2023-12-20T12:54:55;2.50;;;1.17;;
43809;SDS011;29440;48.208;11.162;2023-12-20T12:57:21;2.10;;;0.82;;
43809;SDS011;29440;48.208;11.162;2023-12-20T12:59:47;1.52;;;0.80;;
43809;SDS011;29440;48.208;11.162;2023-12-20T13:02:12;4.30;;;1.42;;
43809;SDS011;29440;48.208;11.162;2023-12-20T13:07:29;1.50;;;0.98;;
43809;SDS011;29440;48.208;11.162;2023-12-20T13:09:55;4.18;;;1.88;;
43809;SDS011;29440;48.208;11.162;2023-12-20T13:12:20;3.55;;;1.67;;
43809;SDS011;29440;48.208;11.162;2023-12-20T13:14:46;2.50;;;1.10;;
43809;SDS011;29440;48.208;11.162;2023-12-20T13:17:12;2.67;;;0.98;;
43809;SDS011;29440;48.208;11.162;2023-12-20T13:19:37;3.13;;;1.20;;
43809;SDS011;29440;48.208;11.162;2023-12-20T13:22:03;2.05;;;0.70;;
43809;SDS011;29440;48.208;11.162;2023-12-20T13:24:29;4.72;;;1.35;;
43809;SDS011;29440;48.208;11.162;2023-12-20T13:26:55;4.85;;;1.00;;
43809;SDS011;29440;48.208;11.162;2023-12-20T13:29:20;3.67;;;1.65;;
43809;SDS011;29440;48.208;11.162;2023-12-20T13:31:46;4.22;;;1.88;;
43809;SDS011;29440;48.208;11.162;2023-12-20T13:34:11;3.90;;;1.60;;
43809;SDS011;29440;48.208;11.162;2023-12-20T13:36:37;2.47;;;1.20;;
43809;SDS011;29440;48.208;11.162;2023-12-20T13:39:03;5.55;;;0.90;;
43809;SDS011;29440;48.208;11.162;2023-12-20T13:41:30;6.45;;;1.30;;
43809;SDS011;29440;48.208;11.162;2023-12-20T13:43:56;4.30;;;1.25;;
43809;SDS011;29440;48.208;11.162;2023-12-20T13:46:21;3.08;;;1.33;;
43809;SDS011;29440;48.208;11.162;2023-12-20T13:48:47;3.78;;;1.15;;
43809;SDS011;29440;48.208;11.162;2023-12-20T13:51:14;2.88;;;1.45;;
43809;SDS011;29440;48.208;11.162;2023-12-20T13:53:43;3.65;;;1.33;;
43809;SDS011;29440;48.208;11.162;2023-12-20T13:56:08;2.58;;;1.23;;
43809;SDS011;29440;48.208;11.162;2023-12-20T13:58:34;1.75;;;0.90;;
43809;SDS011;29440;48.208;11.162;2023-12-20T14:01:00;1.95;;;0.93;;
43809;SDS011;29440;48.208;11.162;2023-12-20T14:03:34;1.77;;;1.00;;
43809;SDS011;29440;48.208;11.162;2023-12-20T14:06:00;3.45;;;1.40;;
43809;SDS011;29440;48.208;11.162;2023-12-20T14:08:26;2.42;;;1.20;;
43809;SDS011;29440;48.208;11.162;2023-12-20T14:10:52;2.55;;;1.20;;
43809;SDS011;29440;48.208;11.162;2023-12-20T14:13:18;2.75;;;0.93;;
43809;SDS011;29440;48.208;11.162;2023-12-20T14:15:44;4.95;;;1.23;;
43809;SDS011;29440;48.208;11.162;2023-12-20T14:18:10;1.33;;;1.00;;
43809;SDS011;29440;48.208;11.162;2023-12-20T14:20:37;3.60;;;2.05;;
43809;SDS011;29440;48.208;11.162;2023-12-20T14:23:04;7.18;;;3.97;;
43809;SDS011;29440;48.208;11.162;2023-12-20T14:25:30;7.82;;;3.45;;
43809;SDS011;29440;48.208;11.162;2023-12-20T14:27:56;6.38;;;3.08;;
43809;SDS011;29440;48.208;11.162;2023-12-20T14:30:22;4.75;;;2.90;;
43809;SDS011;29440;48.208;11.162;2023-12-20T14:32:48;3.83;;;1.95;;
43809;SDS011;29440;48.208;11.162;2023-12-20T14:35:14;2.33;;;0.70;;
43809;SDS011;29440;48.208;11.162;2023-12-20T14:37:39;2.75;;;1.23;;